Time;durP1;ratioP1;P1;durP2;ratioP2;P2;SDS_P1;SDS_P2;PMS_P1;PMS_P2;Temp;Humidity;BMP_temperature;BMP_pressure;BME280_temperature;BME280_humidity;BME280_pressure;Samples;Min_cycle;Max_cycle;Signal;HPM_P1;HPM_P2
2021/10/06 00:03:09;;;;;;;2.08;1.20;;;18.60;75.80;;;;;;10502860;28;20482;-73
2021/10/06 00:08:10;;;;;;;2.33;1.17;;;18.60;75.80;;;;;;10503385;28;20060;-73
2021/10/06 00:13:14;;;;;;;2.20;1.42;;;18.60;75.80;;;;;;10501460;28;20052;-72
2021/10/06 00:18:15;;;;;;;2.58;1.20;;;18.60;75.70;;;;;;10502367;28;20477;-73
2021/10/06 00:23:16;;;;;;;2.72;1.25;;;18.60;75.40;;;;;;10501236;28;20039;-73
2021/10/06 00:28:17;;;;;;;2.22;1.13;;;18.60;75.40;;;;;;10500716;28;20035;-73
2021/10/06 00:33:17;;;;;;;2.47;0.98;;;18.60;75.30;;;;;;10499133;28;20053;-71
2021/10/06 00:38:18;;;;;;;2.22;1.35;;;18.60;75.40;;;;;;10500638;28;20150;-69
2021/10/06 00:43:21;;;;;;;3.42;1.42;;;18.60;75.50;;;;;;10500206;28;20052;-72
2021/10/06 00:48:22;;;;;;;2.17;1.33;;;18.60;75.60;;;;;;10501867;28;20020;-73
2021/10/06 00:53:26;;;;;;;2.35;1.30;;;18.60;75.60;;;;;;10500160;28;20056;-73
2021/10/06 00:58:28;;;;;;;4.53;1.40;;;18.60;75.20;;;;;;10499587;28;20025;-73
2021/10/06 01:03:29;;;;;;;2.65;1.20;;;18.70;75.10;;;;;;10500396;28;20024;-72
2021/10/06 01:08:29;;;;;;;1.90;1.17;;;18.70;75.00;;;;;;10499585;28;20028;-69
2021/10/06 01:13:30;;;;;;;2.15;1.02;;;18.70;75.60;;;;;;10499662;28;20040;-72
2021/10/06 01:18:32;;;;;;;1.73;0.98;;;18.60;75.10;;;;;;10498901;28;20016;-72
2021/10/06 01:23:32;;;;;;;2.33;1.20;;;18.60;75.20;;;;;;10499083;28;20044;-72
2021/10/06 01:28:33;;;;;;;1.85;1.20;;;18.60;75.30;;;;;;10498455;28;20027;-72
2021/10/06 01:33:34;;;;;;;1.63;1.02;;;18.50;75.30;;;;;;10498064;28;20049;-72
2021/10/06 01:38:35;;;;;;;2.67;1.00;;;18.60;75.30;;;;;;10498914;28;20032;-72
2021/10/06 01:43:36;;;;;;;2.35;0.90;;;18.70;75.00;;;;;;10498624;28;20388;-72
2021/10/06 01:48:37;;;;;;;2.80;1.30;;;18.70;75.40;;;;;;10504663;28;20024;-72
2021/10/06 01:53:39;;;;;;;1.80;0.90;;;18.70;74.80;;;;;;10516340;28;20032;-73
2021/10/06 01:58:40;;;;;;;3.33;1.05;;;18.70;74.60;;;;;;10498266;28;20040;-73
2021/10/06 02:03:40;;;;;;;1.92;1.10;;;18.70;74.60;;;;;;10497688;28;20060;-74
2021/10/06 02:08:41;;;;;;;2.20;0.90;;;18.70;74.70;;;;;;10497953;28;20032;-72
2021/10/06 02:13:42;;;;;;;2.03;0.98;;;18.70;74.70;;;;;;10497712;28;20058;-72
2021/10/06 02:18:43;;;;;;;2.38;1.00;;;18.70;74.80;;;;;;10497693;28;20025;-74
2021/10/06 02:23:43;;;;;;;1.40;0.70;;;18.70;74.80;;;;;;10497348;28;20028;-73
2021/10/06 02:28:44;;;;;;;1.80;0.90;;;18.70;74.60;;;;;;10496438;28;20395;-71
2021/10/06 02:33:45;;;;;;;1.85;0.93;;;18.70;74.60;;;;;;10497005;28;20437;-73
2021/10/06 02:38:45;;;;;;;3.25;1.17;;;18.70;74.70;;;;;;10495981;28;20063;-69
2021/10/06 02:43:46;;;;;;;1.85;1.02;;;18.60;74.70;;;;;;10497359;28;20028;-73
2021/10/06 02:48:47;;;;;;;1.70;1.02;;;18.60;74.80;;;;;;10497286;28;20029;-73
2021/10/06 02:53:47;;;;;;;2.15;0.85;;;18.70;74.70;;;;;;10496304;28;20082;-73
2021/10/06 02:58:49;;;;;;;1.98;1.05;;;18.70;74.50;;;;;;10497063;28;20029;-73
2021/10/06 03:03:49;;;;;;;1.58;1.00;;;18.70;74.50;;;;;;10496648;28;20032;-73
2021/10/06 03:08:50;;;;;;;2.20;0.98;;;18.70;74.60;;;;;;10495514;28;20064;-72
2021/10/06 03:13:51;;;;;;;2.00;0.80;;;18.60;74.60;;;;;;10496176;28;20539;-71
2021/10/06 03:18:51;;;;;;;3.90;1.30;;;18.60;74.60;;;;;;10496274;28;20046;-70
2021/10/06 03:23:52;;;;;;;1.77;0.93;;;18.70;74.50;;;;;;10495287;28;20071;-72
2021/10/06 03:28:53;;;;;;;3.33;1.40;;;18.70;74.50;;;;;;10496248;28;20054;-73
2021/10/06 03:33:53;;;;;;;2.30;0.80;;;18.70;74.40;;;;;;10496024;28;20079;-72
2021/10/06 03:38:54;;;;;;;1.73;0.73;;;18.70;74.50;;;;;;10496235;28;20052;-73
2021/10/06 03:43:55;;;;;;;1.33;0.90;;;18.60;74.50;;;;;;10494542;28;20036;-73
2021/10/06 03:48:56;;;;;;;1.60;0.80;;;18.70;74.50;;;;;;10494589;28;20029;-74
2021/10/06 03:53:56;;;;;;;1.52;0.77;;;18.70;74.40;;;;;;10495686;28;20082;-74
2021/10/06 03:58:57;;;;;;;1.35;0.70;;;18.70;74.20;;;;;;10495896;28;20496;-75
2021/10/06 04:03:58;;;;;;;2.05;0.70;;;18.80;74.10;;;;;;10495484;28;20056;-74
2021/10/06 04:08:59;;;;;;;1.08;0.70;;;18.80;74.10;;;;;;10482728;28;20423;-74
2021/10/06 04:13:59;;;;;;;2.08;0.70;;;18.80;74.10;;;;;;10502275;28;20420;-75
2021/10/06 04:19:00;;;;;;;1.50;0.70;;;18.70;74.20;;;;;;10483178;28;20100;-76
2021/10/06 04:24:01;;;;;;;1.00;0.70;;;18.70;74.20;;;;;;10517914;28;20060;-77
2021/10/06 04:29:02;;;;;;;1.25;0.60;;;18.70;74.00;;;;;;10488741;28;20099;-76
2021/10/06 04:34:02;;;;;;;2.17;0.90;;;18.70;74.00;;;;;;10497588;28;20159;-75
2021/10/06 04:39:03;;;;;;;1.45;0.80;;;18.70;74.10;;;;;;10487533;28;20111;-76
2021/10/06 04:44:04;;;;;;;1.00;0.52;;;18.70;74.10;;;;;;10498977;28;20032;-76
2021/10/06 04:49:05;;;;;;;3.05;0.93;;;18.70;74.00;;;;;;10498669;28;20024;-69
2021/10/06 04:54:06;;;;;;;5.07;1.10;;;18.80;74.20;;;;;;10497647;28;20021;-67
2021/10/06 04:59:07;;;;;;;5.07;1.40;;;18.90;74.50;;;;;;10499067;28;20107;-76
2021/10/06 05:04:08;;;;;;;5.63;1.52;;;19.00;74.10;;;;;;10499619;28;20039;-70
2021/10/06 05:09:08;;;;;;;6.38;1.23;;;19.10;74.60;;;;;;10495588;28;20039;-71
2021/10/06 05:14:09;;;;;;;3.85;1.67;;;19.10;74.60;;;;;;10497238;28;20077;-66
2021/10/06 05:19:12;;;;;;;6.07;1.45;;;19.10;75.10;;;;;;10498519;28;20025;-66
2021/10/06 05:24:12;;;;;;;4.53;1.50;;;19.00;75.20;;;;;;10491765;28;20029;-65
2021/10/06 05:29:13;;;;;;;4.07;1.40;;;19.00;75.30;;;;;;10496923;28;20040;-66
2021/10/06 05:34:14;;;;;;;5.25;1.73;;;19.00;75.30;;;;;;10483047;28;20051;-63
2021/10/06 05:39:15;;;;;;;4.43;1.40;;;19.00;75.40;;;;;;10495062;28;20032;-63
2021/10/06 05:44:16;;;;;;;6.47;1.92;;;18.90;75.60;;;;;;10497578;28;20029;-66
2021/10/06 05:49:16;;;;;;;6.72;2.17;;;18.90;75.50;;;;;;10506185;28;20072;-63
2021/10/06 05:54:17;;;;;;;12.63;2.45;;;18.90;75.80;;;;;;10498254;28;20036;-62
2021/10/06 05:59:18;;;;;;;18.38;2.88;;;18.90;75.80;;;;;;10496494;28;20039;-68
2021/10/06 06:04:19;;;;;;;22.02;3.17;;;18.90;75.50;;;;;;10483127;28;20123;-67
2021/10/06 06:09:21;;;;;;;17.27;2.33;;;18.90;75.50;;;;;;10494841;28;20040;-68
2021/10/06 06:14:22;;;;;;;7.03;2.08;;;18.70;75.40;;;;;;10492409;28;20051;-67
2021/10/06 06:19:23;;;;;;;10.48;2.30;;;18.70;75.70;;;;;;10494105;28;20052;-67
2021/10/06 06:24:26;;;;;;;10.32;2.22;;;18.60;75.80;;;;;;10494353;28;20093;-68
2021/10/06 06:29:27;;;;;;;11.27;2.45;;;18.50;75.90;;;;;;10493050;28;20083;-67
2021/10/06 06:34:28;;;;;;;7.80;2.05;;;18.50;75.90;;;;;;10496578;28;20036;-69
2021/10/06 06:39:29;;;;;;;7.95;2.00;;;18.50;76.30;;;;;;10495440;28;20103;-68
2021/10/06 06:44:29;;;;;;;5.10;1.55;;;18.50;76.00;;;;;;10495285;28;20459;-70
2021/10/06 06:49:30;;;;;;;6.75;2.28;;;18.50;76.00;;;;;;10504841;28;20525;-69
2021/10/06 06:54:31;;;;;;;9.27;2.00;;;18.50;75.90;;;;;;10503632;28;20098;-71
2021/10/06 06:59:32;;;;;;;9.18;2.28;;;18.60;75.80;;;;;;10496384;28;20115;-66
2021/10/06 07:04:33;;;;;;;6.45;1.85;;;18.60;75.60;;;;;;10496474;28;20034;-68
2021/10/06 07:09:36;;;;;;;4.60;1.40;;;18.60;75.60;;;;;;10478422;28;20401;-66
2021/10/06 07:14:36;;;;;;;7.82;2.10;;;18.70;75.60;;;;;;10484797;28;20028;-65
2021/10/06 07:19:38;;;;;;;11.98;2.20;;;18.70;75.70;;;;;;10487641;28;20116;-64
2021/10/06 07:24:39;;;;;;;10.18;2.45;;;18.80;75.90;;;;;;10490483;28;20029;-63
2021/10/06 07:29:40;;;;;;;9.25;2.22;;;18.80;76.30;;;;;;10487181;28;20032;-62
2021/10/06 07:34:40;;;;;;;11.68;1.98;;;18.70;76.10;;;;;;10481175;28;20400;-64
2021/10/06 07:39:41;;;;;;;13.80;2.30;;;18.70;76.30;;;;;;10491294;28;20505;-67
2021/10/06 07:44:43;;;;;;;7.90;2.35;;;18.60;76.10;;;;;;10503355;28;20063;-67
2021/10/06 07:49:44;;;;;;;7.95;1.67;;;18.60;76.30;;;;;;10515495;28;20032;-65
2021/10/06 07:54:45;;;;;;;8.02;2.13;;;18.50;76.30;;;;;;10499946;28;20066;-72
2021/10/06 07:59:45;;;;;;;8.45;1.92;;;18.50;76.30;;;;;;10501605;28;20115;-71
2021/10/06 08:04:46;;;;;;;8.38;2.35;;;18.50;76.30;;;;;;10500962;28;20123;-70
2021/10/06 08:09:47;;;;;;;9.02;1.77;;;18.60;76.10;;;;;;10501347;28;20544;-68
2021/10/06 08:14:47;;;;;;;6.53;1.70;;;18.70;75.90;;;;;;10501884;28;20472;-70
2021/10/06 08:19:49;;;;;;;13.43;2.92;;;18.80;75.90;;;;;;10500491;28;20477;-69
2021/10/06 08:24:50;;;;;;;11.65;2.05;;;18.70;75.60;;;;;;10501988;28;20037;-68
2021/10/06 08:29:51;;;;;;;9.27;2.10;;;18.80;75.50;;;;;;10489540;28;20036;-68
2021/10/06 08:34:53;;;;;;;12.30;2.00;;;18.80;75.20;;;;;;10497523;28;20102;-68
2021/10/06 08:39:54;;;;;;;8.00;2.25;;;18.70;75.30;;;;;;10499319;28;20086;-66
2021/10/06 08:44:55;;;;;;;5.55;1.92;;;18.70;75.40;;;;;;10501543;28;20089;-66
2021/10/06 08:49:57;;;;;;;7.80;1.63;;;18.70;75.40;;;;;;10497937;28;20048;-68
2021/10/06 08:54:57;;;;;;;6.65;1.80;;;18.70;75.20;;;;;;10497331;28;20082;-63
2021/10/06 08:59:58;;;;;;;7.82;1.50;;;18.70;75.20;;;;;;10498817;28;20067;-67
2021/10/06 09:04:59;;;;;;;7.15;2.10;;;18.70;75.20;;;;;;10500034;28;20035;-67
2021/10/06 09:10:14;;;;;;;4.95;1.65;;;18.70;75.30;;;;;;10500635;28;20528;-67
2021/10/06 09:15:15;;;;;;;4.32;1.50;;;18.60;75.90;;;;;;10501002;28;20030;-67
2021/10/06 09:20:16;;;;;;;3.95;1.70;;;18.60;75.40;;;;;;10501052;28;20460;-69
2021/10/06 09:25:16;;;;;;;5.18;1.65;;;18.60;75.40;;;;;;10498710;28;20396;-68
2021/10/06 09:30:17;;;;;;;5.40;1.60;;;18.60;75.30;;;;;;10493499;28;20115;-68
2021/10/06 09:35:21;;;;;;;6.53;1.30;;;18.60;75.10;;;;;;10496333;28;20135;-62
2021/10/06 09:40:25;;;;;;;7.15;1.77;;;18.70;74.90;;;;;;10497020;28;20037;-61
2021/10/06 09:45:30;;;;;;;7.53;1.38;;;18.80;74.70;;;;;;10498855;28;20056;-64
2021/10/06 09:50:42;;;;;;;5.82;1.50;;;18.80;74.50;;;;;;10492794;28;20032;-66
2021/10/06 09:55:50;;;;;;;8.10;1.80;;;18.90;74.80;;;;;;10494397;28;20070;-65
2021/10/06 10:00:51;;;;;;;10.38;1.88;;;18.90;75.90;;;;;;10497349;28;20028;-66
2021/10/06 10:05:52;;;;;;;9.65;2.10;;;18.90;75.60;;;;;;10500006;28;20115;-64
2021/10/06 10:10:53;;;;;;;12.05;2.13;;;19.00;75.70;;;;;;10496008;28;20239;-64
2021/10/06 10:15:54;;;;;;;8.07;2.40;;;19.00;75.80;;;;;;10496566;28;20052;-67
2021/10/06 10:20:55;;;;;;;6.82;2.10;;;19.00;76.30;;;;;;10495797;28;20040;-64
2021/10/06 10:25:56;;;;;;;4.97;1.83;;;19.00;77.10;;;;;;10493125;28;20031;-66
2021/10/06 10:31:01;;;;;;;5.53;1.92;;;19.10;76.40;;;;;;10495881;28;20059;-65
2021/10/06 10:36:01;;;;;;;9.20;2.25;;;19.40;75.50;;;;;;10494992;28;20028;-58
2021/10/06 10:41:03;;;;;;;9.70;2.40;;;19.40;75.20;;;;;;10495109;28;20078;-58
2021/10/06 10:46:11;;;;;;;5.55;2.63;;;19.30;75.30;;;;;;10495171;28;20032;-58
2021/10/06 10:51:12;;;;;;;10.50;2.50;;;19.20;75.50;;;;;;10496592;28;20032;-58
2021/10/06 10:56:13;;;;;;;3.75;1.80;;;19.10;75.20;;;;;;10494020;28;20615;-59
2021/10/06 11:01:15;;;;;;;13.07;2.30;;;19.10;75.10;;;;;;10496442;28;20039;-59
2021/10/06 11:06:39;;;;;;;7.57;2.20;;;19.10;74.70;;;;;;10477377;28;20029;-58
2021/10/06 11:11:40;;;;;;;8.20;2.30;;;19.10;75.00;;;;;;10492218;28;20052;-58
2021/10/06 11:17:15;;;;;;;9.50;2.10;;;19.10;75.30;;;;;;10498005;28;20032;-58
2021/10/06 11:22:21;;;;;;;7.10;1.77;;;19.10;75.40;;;;;;10502850;28;20142;-62
2021/10/06 11:27:22;;;;;;;4.63;1.85;;;19.10;75.10;;;;;;10503371;28;20052;-58
2021/10/06 11:32:24;;;;;;;6.28;1.70;;;19.10;75.30;;;;;;10500740;28;20071;-59
2021/10/06 11:37:27;;;;;;;7.68;2.08;;;19.10;75.40;;;;;;10502571;28;20032;-60
2021/10/06 11:42:32;;;;;;;6.32;1.98;;;19.00;75.70;;;;;;10503436;28;20028;-62
2021/10/06 11:47:37;;;;;;;7.65;1.73;;;19.00;75.60;;;;;;10502228;28;20392;-61
2021/10/06 11:52:38;;;;;;;12.32;2.40;;;19.00;75.70;;;;;;10501577;28;20412;-62
2021/10/06 11:57:38;;;;;;;4.68;2.00;;;18.80;75.80;;;;;;10501774;28;20037;-62
2021/10/06 12:02:39;;;;;;;7.18;2.60;;;18.80;76.00;;;;;;10501571;28;20453;-61
2021/10/06 12:07:40;;;;;;;6.18;1.73;;;18.80;76.10;;;;;;10500331;28;20033;-61
2021/10/06 12:12:43;;;;;;;4.28;1.65;;;18.70;76.10;;;;;;10495939;28;20044;-61
2021/10/06 12:17:48;;;;;;;6.05;1.60;;;18.70;76.10;;;;;;10492040;28;20021;-62
2021/10/06 12:22:59;;;;;;;8.35;1.95;;;18.70;76.20;;;;;;10501984;28;20111;-61
2021/10/06 12:28:10;;;;;;;4.03;2.13;;;18.70;76.00;;;;;;10496937;28;20036;-61
2021/10/06 12:33:14;;;;;;;5.53;2.25;;;18.70;75.90;;;;;;10483035;28;20033;-60
2021/10/06 12:38:15;;;;;;;6.90;1.75;;;18.70;75.90;;;;;;10498840;28;20035;-61
2021/10/06 12:43:27;;;;;;;7.70;1.95;;;18.60;75.90;;;;;;10498512;28;20035;-60
2021/10/06 12:48:50;;;;;;;10.30;1.95;;;18.60;76.00;;;;;;10503690;28;20038;-60
2021/10/06 12:54:05;;;;;;;3.67;1.77;;;18.60;76.10;;;;;;10506696;28;20032;-60
2021/10/06 12:59:09;;;;;;;4.80;2.00;;;18.60;76.10;;;;;;10500726;28;20020;-60
2021/10/06 13:04:13;;;;;;;4.85;1.48;;;18.60;76.10;;;;;;10499673;28;20139;-59
2021/10/06 13:09:15;;;;;;;3.03;1.40;;;18.70;76.00;;;;;;10477239;28;20530;-60
2021/10/06 13:14:16;;;;;;;4.50;1.45;;;18.70;75.80;;;;;;10499251;28;20021;-60
2021/10/06 13:19:18;;;;;;;2.55;1.17;;;18.70;75.80;;;;;;10498820;28;20032;-61
2021/10/06 13:24:20;;;;;;;4.57;1.85;;;18.60;76.00;;;;;;10498917;28;20031;-61
2021/10/06 13:29:24;;;;;;;5.68;1.10;;;18.60;76.10;;;;;;10499659;28;20060;-61
2021/10/06 13:34:25;;;;;;;3.58;1.52;;;18.60;76.10;;;;;;10498219;28;20051;-60
2021/10/06 13:39:26;;;;;;;7.25;1.67;;;18.60;76.00;;;;;;10497305;28;20103;-60
2021/10/06 13:44:26;;;;;;;5.22;1.60;;;18.60;76.00;;;;;;10480714;28;20085;-57
2021/10/06 13:49:27;;;;;;;5.80;1.83;;;18.70;75.80;;;;;;10495617;28;20029;-58
2021/10/06 13:54:28;;;;;;;8.75;2.45;;;18.80;76.20;;;;;;10497379;28;20024;-58
2021/10/06 13:59:29;;;;;;;13.75;2.65;;;18.90;76.40;;;;;;10497359;28;20032;-58
2021/10/06 14:04:29;;;;;;;8.02;1.88;;;18.90;75.60;;;;;;10499453;28;20063;-58
2021/10/06 14:09:30;;;;;;;5.90;2.15;;;18.90;76.40;;;;;;10479463;28;20117;-58
2021/10/06 14:14:30;;;;;;;10.52;2.22;;;18.90;76.80;;;;;;10475096;28;20158;-58
2021/10/06 14:19:31;;;;;;;18.42;3.05;;;18.80;76.90;;;;;;10480253;28;20064;-59
2021/10/06 14:24:32;;;;;;;14.48;2.33;;;18.80;76.60;;;;;;10496497;28;20401;-58
2021/10/06 14:29:33;;;;;;;12.25;2.40;;;18.80;77.10;;;;;;10494128;28;20076;-58
2021/10/06 14:34:34;;;;;;;18.30;2.92;;;18.90;77.00;;;;;;10495924;28;20461;-57
2021/10/06 14:39:35;;;;;;;12.07;3.38;;;18.90;77.10;;;;;;10478922;28;20032;-57
2021/10/06 14:44:36;;;;;;;14.88;3.20;;;18.80;77.10;;;;;;10497308;28;20499;-57
2021/10/06 14:49:36;;;;;;;12.85;2.53;;;18.80;77.10;;;;;;10496121;28;20043;-58
2021/10/06 14:54:37;;;;;;;10.75;2.97;;;18.80;77.10;;;;;;10497031;28;20050;-59
2021/10/06 14:59:38;;;;;;;13.25;3.22;;;18.70;77.20;;;;;;10496557;28;20057;-59
2021/10/06 15:04:39;;;;;;;11.57;1.92;;;18.70;77.20;;;;;;10478354;28;20024;-58
2021/10/06 15:09:41;;;;;;;17.20;2.63;;;18.70;77.20;;;;;;10495001;28;20123;-57
2021/10/06 15:14:43;;;;;;;12.43;2.72;;;18.70;77.30;;;;;;10495800;28;20047;-57
2021/10/06 15:19:43;;;;;;;36.40;6.38;;;18.70;77.30;;;;;;10494024;28;20035;-56
2021/10/06 15:24:44;;;;;;;25.58;4.22;;;18.70;77.20;;;;;;10495349;28;20071;-57
2021/10/06 15:29:46;;;;;;;22.15;5.07;;;18.60;76.50;;;;;;10494853;28;20044;-58
2021/10/06 15:34:47;;;;;;;21.17;3.95;;;18.60;76.60;;;;;;10492246;28;20040;-57
2021/10/06 15:39:48;;;;;;;32.10;4.80;;;18.70;76.40;;;;;;10493970;28;20134;-56
2021/10/06 15:44:49;;;;;;;52.40;21.83;;;18.80;75.30;;;;;;10495236;28;20111;-57
2021/10/06 15:49:49;;;;;;;30.95;13.10;;;19.10;76.90;;;;;;10494531;28;20082;-55
2021/10/06 15:54:51;;;;;;;43.47;14.68;;;19.10;77.20;;;;;;10494556;28;20024;-56
2021/10/06 15:59:52;;;;;;;33.42;12.45;;;19.10;78.30;;;;;;10494729;28;20071;-57
2021/10/06 16:04:52;;;;;;;31.88;11.05;;;19.30;79.00;;;;;;10502403;28;20484;-56
2021/10/06 16:09:53;;;;;;;23.85;11.43;;;19.50;79.00;;;;;;10502880;28;20040;-58
2021/10/06 16:14:54;;;;;;;36.85;15.50;;;19.50;78.80;;;;;;10502888;28;20385;-58
2021/10/06 16:19:54;;;;;;;26.88;11.85;;;19.60;79.10;;;;;;10502303;28;20070;-57
2021/10/06 16:24:57;;;;;;;27.98;11.95;;;19.50;78.20;;;;;;10517999;28;20385;-58
2021/10/06 16:29:58;;;;;;;25.20;9.60;;;19.40;78.30;;;;;;10496162;28;20179;-57
2021/10/06 16:34:59;;;;;;;25.25;9.73;;;19.40;78.30;;;;;;10493211;28;20098;-58
2021/10/06 16:40:00;;;;;;;17.10;8.23;;;19.40;78.30;;;;;;10501425;28;20039;-63
2021/10/06 16:45:01;;;;;;;18.95;8.48;;;19.20;77.40;;;;;;10499681;28;20035;-63
2021/10/06 16:50:05;;;;;;;21.20;8.13;;;19.20;77.90;;;;;;10501245;28;20095;-60
2021/10/06 16:55:06;;;;;;;17.35;7.38;;;19.10;78.10;;;;;;10500705;28;20031;-63
2021/10/06 17:00:09;;;;;;;18.95;7.13;;;19.00;78.10;;;;;;10499340;28;20368;-63
2021/10/06 17:05:10;;;;;;;14.90;6.90;;;18.90;78.10;;;;;;10500159;28;20025;-62
2021/10/06 17:10:11;;;;;;;21.05;6.70;;;18.90;78.20;;;;;;10498284;28;20032;-63
2021/10/06 17:15:12;;;;;;;13.82;5.90;;;18.80;78.30;;;;;;10480879;28;20044;-63
2021/10/06 17:20:13;;;;;;;15.23;6.15;;;18.80;78.40;;;;;;10499481;28;20121;-63
2021/10/06 17:25:15;;;;;;;12.30;5.13;;;18.80;78.40;;;;;;10480988;28;20381;-62
2021/10/06 17:30:19;;;;;;;22.65;6.85;;;18.70;78.20;;;;;;10471839;28;20116;-62
2021/10/06 17:35:21;;;;;;;16.77;6.03;;;18.70;78.20;;;;;;10491073;28;20062;-61
2021/10/06 17:40:25;;;;;;;16.67;5.95;;;18.70;78.10;;;;;;10478266;28;20087;-62
2021/10/06 17:45:27;;;;;;;21.60;6.20;;;18.70;78.10;;;;;;10486145;28;20421;-61
2021/10/06 17:50:30;;;;;;;14.43;5.63;;;18.70;78.20;;;;;;10479393;28;20037;-61
2021/10/06 17:55:31;;;;;;;18.80;6.35;;;18.70;78.40;;;;;;10495273;28;20415;-63
2021/10/06 18:00:32;;;;;;;14.38;5.68;;;18.70;78.40;;;;;;10494380;28;20028;-62
2021/10/06 18:05:33;;;;;;;14.52;5.53;;;18.70;78.30;;;;;;10499879;28;20024;-61
2021/10/06 18:10:35;;;;;;;17.35;5.43;;;18.70;78.40;;;;;;10479211;28;20041;-61
2021/10/06 18:15:35;;;;;;;17.02;5.57;;;18.70;78.30;;;;;;10497208;28;20422;-62
2021/10/06 18:20:36;;;;;;;12.38;4.40;;;18.70;78.20;;;;;;10496549;28;20028;-61
2021/10/06 18:25:39;;;;;;;13.98;4.10;;;18.70;78.40;;;;;;10496446;28;20089;-64
2021/10/06 18:30:40;;;;;;;12.63;4.22;;;18.70;78.00;;;;;;10495870;28;20024;-62
2021/10/06 18:35:40;;;;;;;11.82;3.90;;;18.60;77.90;;;;;;10494653;28;20052;-60
2021/10/06 18:40:41;;;;;;;13.18;4.13;;;18.60;78.10;;;;;;10493444;28;20342;-61
2021/10/06 18:45:42;;;;;;;9.73;4.25;;;18.50;78.10;;;;;;10494723;28;20032;-61
2021/10/06 18:50:44;;;;;;;10.68;3.75;;;18.50;78.20;;;;;;10507465;28;20451;-62
2021/10/06 18:55:44;;;;;;;11.73;4.18;;;18.50;78.20;;;;;;10497145;28;20476;-62
2021/10/06 19:00:48;;;;;;;9.77;3.88;;;18.50;78.20;;;;;;10496767;28;20028;-61
2021/10/06 19:05:49;;;;;;;10.25;3.55;;;18.50;78.10;;;;;;10496938;28;20020;-61
2021/10/06 19:10:50;;;;;;;9.95;3.75;;;18.50;78.00;;;;;;10495400;28;20036;-61
2021/10/06 19:15:51;;;;;;;7.28;3.17;;;18.50;77.70;;;;;;10495471;28;20035;-61
2021/10/06 19:20:53;;;;;;;7.90;3.58;;;18.50;77.60;;;;;;10496387;28;20033;-61
2021/10/06 19:25:53;;;;;;;8.60;3.50;;;18.50;77.70;;;;;;10495250;28;20040;-62
2021/10/06 19:30:54;;;;;;;9.85;3.58;;;18.50;77.70;;;;;;10494809;28;20392;-62
2021/10/06 19:35:56;;;;;;;8.48;3.30;;;18.60;77.40;;;;;;10497106;28;20123;-61
2021/10/06 19:40:57;;;;;;;7.05;3.22;;;18.60;77.00;;;;;;10502717;28;20183;-62
2021/10/06 19:45:57;;;;;;;10.50;3.70;;;18.70;76.70;;;;;;10503030;28;20179;-62
2021/10/06 19:50:58;;;;;;;9.98;3.42;;;18.70;76.60;;;;;;10515192;28;20064;-61
2021/10/06 19:55:59;;;;;;;9.35;3.20;;;18.70;76.60;;;;;;10502359;28;20024;-61
2021/10/06 20:01:00;;;;;;;7.30;2.65;;;18.70;76.60;;;;;;10501336;28;20039;-61
2021/10/06 20:06:01;;;;;;;5.65;2.97;;;18.80;76.30;;;;;;10503330;28;20044;-61
2021/10/06 20:11:02;;;;;;;5.60;2.70;;;18.80;76.10;;;;;;10501340;28;20032;-62
2021/10/06 20:16:04;;;;;;;5.70;3.17;;;18.80;75.90;;;;;;10501759;28;20025;-61
2021/10/06 20:21:06;;;;;;;4.22;2.67;;;18.80;75.80;;;;;;10501335;28;20064;-62
2021/10/06 20:26:06;;;;;;;8.38;3.10;;;18.80;75.90;;;;;;10501148;28;20086;-62
2021/10/06 20:31:08;;;;;;;8.52;2.60;;;18.80;76.00;;;;;;10498716;28;20086;-61
2021/10/06 20:41:26;;;;;;;6.07;2.75;;;18.80;75.90;;;;;;10500893;28;20044;-61
2021/10/06 20:46:27;;;;;;;4.15;2.40;;;18.80;75.80;;;;;;10500653;28;20032;-62
2021/10/06 20:51:29;;;;;;;6.47;2.55;;;18.80;75.70;;;;;;10511625;28;20485;-60
2021/10/06 20:56:29;;;;;;;4.40;2.35;;;18.80;75.70;;;;;;10500068;28;20107;-61
2021/10/06 21:01:30;;;;;;;7.65;2.40;;;18.80;75.80;;;;;;10487393;28;20503;-62
2021/10/06 21:06:31;;;;;;;7.15;2.20;;;18.70;75.80;;;;;;10500856;28;20104;-62
2021/10/06 21:11:31;;;;;;;6.22;2.15;;;18.70;75.80;;;;;;10500256;28;20032;-61
2021/10/06 21:16:32;;;;;;;5.90;2.30;;;18.70;75.70;;;;;;10500491;28;20265;-61
2021/10/06 21:21:33;;;;;;;3.58;1.92;;;18.70;75.70;;;;;;10498932;28;20047;-61
2021/10/06 21:26:34;;;;;;;4.53;2.33;;;18.70;75.70;;;;;;10498885;28;20024;-61
2021/10/06 21:31:39;;;;;;;6.25;2.85;;;18.70;75.80;;;;;;10499776;28;20115;-61
2021/10/06 21:36:40;;;;;;;5.82;2.22;;;18.60;75.90;;;;;;10499502;28;20051;-61
2021/10/06 21:41:40;;;;;;;4.63;2.53;;;18.60;75.90;;;;;;10499539;28;20486;-62
2021/10/06 21:46:41;;;;;;;5.00;1.95;;;18.60;76.00;;;;;;10498386;28;20406;-62
2021/10/06 21:51:42;;;;;;;3.20;1.70;;;18.60;75.80;;;;;;10510923;28;20104;-61
2021/10/06 21:56:42;;;;;;;3.65;2.28;;;18.60;75.70;;;;;;10497560;28;20040;-61
2021/10/06 22:01:43;;;;;;;4.57;2.05;;;18.70;75.50;;;;;;10496948;28;20044;-61
2021/10/06 22:06:44;;;;;;;3.10;1.40;;;18.70;75.40;;;;;;10497649;28;20449;-61
2021/10/06 22:11:45;;;;;;;3.00;1.48;;;18.70;75.40;;;;;;10497836;28;20115;-60
2021/10/06 22:16:45;;;;;;;3.85;2.00;;;18.70;75.30;;;;;;10496999;28;20104;-61
2021/10/06 22:21:48;;;;;;;4.78;2.25;;;18.80;74.90;;;;;;10497718;28;20115;-61
2021/10/06 22:26:48;;;;;;;4.93;1.80;;;18.80;74.80;;;;;;10496433;28;20103;-62
2021/10/06 22:31:49;;;;;;;3.28;2.00;;;18.80;74.90;;;;;;10484178;28;20040;-62
2021/10/06 22:36:50;;;;;;;2.65;1.77;;;18.80;74.90;;;;;;10497540;28;20182;-62
2021/10/06 22:41:50;;;;;;;3.10;1.42;;;18.70;74.80;;;;;;10497111;28;20518;-61
2021/10/06 22:46:51;;;;;;;5.47;2.38;;;18.70;74.90;;;;;;10496037;28;20508;-61
2021/10/06 22:51:52;;;;;;;2.67;1.42;;;18.70;75.00;;;;;;10496675;28;20528;-61
2021/10/06 22:56:53;;;;;;;4.38;1.67;;;18.70;74.90;;;;;;10497140;28;20389;-61
2021/10/06 23:01:54;;;;;;;3.33;1.52;;;18.70;74.70;;;;;;10496716;28;20035;-61
2021/10/06 23:06:54;;;;;;;4.18;2.00;;;18.70;74.70;;;;;;10477347;28;20111;-61
2021/10/06 23:11:55;;;;;;;3.72;1.85;;;18.70;74.80;;;;;;10497948;28;20119;-61
2021/10/06 23:16:56;;;;;;;3.60;1.50;;;18.70;74.80;;;;;;10504047;28;20075;-61
2021/10/06 23:21:57;;;;;;;3.03;1.60;;;18.70;74.80;;;;;;10504009;28;20036;-61
2021/10/06 23:26:57;;;;;;;3.38;1.60;;;18.70;74.70;;;;;;10504957;28;20111;-61
2021/10/06 23:31:58;;;;;;;4.30;1.77;;;18.70;74.50;;;;;;10490845;28;20158;-61
2021/10/06 23:36:59;;;;;;;3.03;1.90;;;18.80;74.20;;;;;;10504056;28;20094;-61
2021/10/06 23:41:59;;;;;;;3.67;1.63;;;18.80;74.10;;;;;;10504127;28;20105;-61
2021/10/06 23:47:00;;;;;;;2.22;1.20;;;18.80;74.20;;;;;;10502768;28;20133;-61
2021/10/06 23:52:02;;;;;;;2.55;1.45;;;18.70;74.20;;;;;;10516935;28;20465;-61
2021/10/06 23:57:03;;;;;;;2.38;1.42;;;18.70;74.20;;;;;;10502339;28;20027;-61
